createdAt,value
2023-03-24T00:00:18.781Z,0.00
2023-03-24T00:01:18.808Z,0.00
2023-03-24T00:02:18.774Z,0.00
2023-03-24T00:03:19.220Z,0.00
2023-03-24T00:04:18.753Z,0.00
2023-03-24T00:05:19.780Z,0.00
2023-03-24T00:06:18.702Z,0.00
2023-03-24T00:07:18.816Z,0.00
2023-03-24T00:08:19.002Z,0.00
2023-03-24T00:09:18.669Z,0.00
2023-03-24T00:10:18.648Z,0.00
2023-03-24T00:11:18.760Z,0.00
2023-03-24T00:12:18.647Z,0.00
2023-03-24T00:13:18.641Z,0.00
2023-03-24T00:14:18.634Z,0.00
2023-03-24T00:15:18.587Z,0.00
2023-03-24T00:16:18.674Z,0.00
2023-03-24T00:17:18.570Z,0.00
2023-03-24T00:18:18.577Z,0.00
2023-03-24T00:19:18.547Z,0.00
2023-03-24T00:20:18.546Z,0.00
2023-03-24T00:21:18.546Z,0.00
2023-03-24T00:22:18.528Z,0.00
2023-03-24T00:23:18.516Z,0.00
2023-03-24T00:24:18.521Z,0.00
2023-03-24T00:25:18.490Z,0.00
2023-03-24T00:26:18.478Z,0.00
2023-03-24T00:27:18.460Z,0.00
2023-03-24T00:28:18.466Z,0.00
2023-03-24T00:29:18.442Z,0.00
2023-03-24T00:30:18.437Z,0.00
2023-03-24T00:31:18.456Z,0.00
2023-03-24T00:32:18.402Z,0.00
2023-03-24T00:33:18.402Z,0.00
2023-03-24T00:34:18.386Z,0.00
2023-03-24T00:35:18.374Z,0.00
2023-03-24T00:36:18.440Z,0.00
2023-03-24T00:37:18.352Z,0.00
2023-03-24T00:38:18.350Z,0.00
2023-03-24T00:39:18.342Z,0.00
2023-03-24T00:40:18.316Z,0.00
2023-03-24T00:41:18.305Z,0.00
2023-03-24T00:42:18.286Z,0.00
2023-03-24T00:43:19.287Z,0.00
2023-03-24T00:44:18.275Z,0.00
2023-03-24T00:45:18.328Z,0.00
2023-03-24T00:46:18.339Z,0.00
2023-03-24T00:47:18.242Z,0.00
2023-03-24T00:48:18.224Z,0.00
2023-03-24T00:49:18.385Z,0.00
2023-03-24T00:50:18.200Z,0.00
2023-03-24T00:51:18.197Z,0.00
2023-03-24T00:52:18.190Z,0.00
2023-03-24T00:53:18.179Z,0.00
2023-03-24T00:54:18.182Z,0.00
2023-03-24T00:55:18.142Z,0.00
2023-03-24T00:56:18.149Z,0.00
2023-03-24T00:57:18.196Z,0.00
2023-03-24T00:58:18.105Z,0.00
2023-03-24T00:59:18.130Z,0.00
2023-03-24T01:00:18.106Z,0.00
2023-03-24T01:01:18.104Z,0.00
2023-03-24T01:02:18.101Z,0.00
2023-03-24T01:03:18.095Z,0.00
2023-03-24T01:04:18.054Z,0.00
2023-03-24T01:05:18.094Z,0.00
2023-03-24T01:06:18.027Z,0.00
2023-03-24T01:07:18.014Z,0.00
2023-03-24T01:08:17.988Z,0.00
2023-03-24T01:09:17.982Z,0.00
2023-03-24T01:10:17.974Z,0.00
2023-03-24T01:11:17.954Z,0.00
2023-03-24T01:12:17.940Z,0.00
2023-03-24T01:13:17.938Z,0.00
2023-03-24T01:14:17.927Z,0.00
2023-03-24T01:15:17.904Z,0.00
2023-03-24T01:16:17.983Z,0.00
2023-03-24T01:17:17.897Z,0.00
2023-03-24T01:18:17.883Z,0.00
2023-03-24T01:19:17.888Z,0.00
2023-03-24T01:20:17.846Z,0.00
2023-03-24T01:21:17.847Z,0.00
2023-03-24T01:22:17.836Z,0.00
2023-03-24T01:23:17.815Z,0.00
2023-03-24T01:24:17.820Z,0.00
2023-03-24T01:25:17.816Z,0.00
2023-03-24T01:26:17.789Z,0.00
2023-03-24T01:27:17.791Z,0.00
2023-03-24T01:28:17.760Z,0.00
2023-03-24T01:29:17.758Z,0.00
2023-03-24T01:30:17.749Z,0.00
2023-03-24T01:31:17.761Z,0.00
2023-03-24T01:32:17.709Z,0.00
2023-03-24T01:33:17.725Z,0.00
2023-03-24T01:34:17.697Z,0.00
2023-03-24T01:35:17.675Z,0.00
2023-03-24T01:36:17.731Z,0.00
2023-03-24T01:37:17.653Z,0.00
2023-03-24T01:38:17.670Z,0.00
2023-03-24T01:39:17.659Z,0.00
2023-03-24T01:40:17.632Z,0.00
2023-03-24T01:41:17.609Z,0.00
2023-03-24T01:42:17.604Z,0.00
2023-03-24T01:43:17.602Z,0.00
2023-03-24T01:44:17.592Z,0.00
2023-03-24T01:45:17.565Z,0.00
2023-03-24T01:46:17.638Z,0.00
2023-03-24T01:47:17.550Z,0.00
2023-03-24T01:48:17.544Z,0.00
2023-03-24T01:49:17.545Z,0.00
2023-03-24T01:50:17.514Z,0.00
2023-03-24T01:51:17.534Z,0.00
2023-03-24T01:52:17.478Z,0.00
2023-03-24T01:53:17.493Z,0.00
2023-03-24T01:54:17.466Z,0.00
2023-03-24T01:55:17.465Z,0.00
2023-03-24T01:56:17.444Z,0.00
2023-03-24T01:57:17.474Z,0.00
2023-03-24T01:58:17.430Z,0.00
2023-03-24T01:59:17.428Z,0.00
2023-03-24T02:00:17.411Z,0.00
2023-03-24T02:01:17.394Z,0.00
2023-03-24T02:02:17.393Z,0.00
2023-03-24T02:03:17.380Z,0.00
2023-03-24T02:04:17.437Z,0.00
2023-03-24T02:05:17.356Z,0.00
2023-03-24T02:06:17.355Z,0.00
2023-03-24T02:07:17.325Z,0.00
2023-03-24T02:08:17.312Z,0.00
2023-03-24T02:09:17.321Z,0.00
2023-03-24T02:10:17.316Z,0.00
2023-03-24T02:11:17.278Z,0.00
2023-03-24T02:12:17.275Z,0.00
2023-03-24T02:13:17.258Z,0.00
2023-03-24T02:14:17.236Z,0.00
2023-03-24T02:15:17.250Z,0.00
2023-03-24T02:16:17.257Z,0.00
2023-03-24T02:17:17.215Z,0.00
2023-03-24T02:18:17.194Z,0.00
2023-03-24T02:19:17.208Z,0.00
2023-03-24T02:20:17.185Z,0.00
2023-03-24T02:21:17.172Z,0.00
2023-03-24T02:22:17.187Z,0.00
2023-03-24T02:23:17.150Z,0.00
2023-03-24T02:24:17.124Z,0.00
2023-03-24T02:25:17.142Z,0.00
2023-03-24T02:26:17.108Z,0.00
2023-03-24T02:27:17.109Z,0.00
2023-03-24T02:28:17.098Z,0.00
2023-03-24T02:29:17.085Z,0.00
2023-03-24T02:30:17.064Z,0.00
2023-03-24T02:31:17.086Z,0.00
2023-03-24T02:32:17.035Z,0.00
2023-03-24T02:33:17.022Z,0.00
2023-03-24T02:34:17.039Z,0.00
2023-03-24T02:35:17.010Z,0.00
2023-03-24T02:36:17.034Z,0.00
2023-03-24T02:37:16.973Z,0.00
2023-03-24T02:38:16.971Z,0.00
2023-03-24T02:39:16.965Z,0.00
2023-03-24T02:40:16.967Z,0.00
2023-03-24T02:41:16.946Z,0.00
2023-03-24T02:42:16.917Z,0.00
2023-03-24T02:43:16.959Z,0.00
2023-03-24T02:44:16.905Z,0.00
2023-03-24T02:45:16.903Z,0.00
2023-03-24T02:46:16.913Z,0.00
2023-03-24T02:47:16.890Z,0.00
2023-03-24T02:48:16.850Z,0.00
2023-03-24T02:49:16.862Z,0.00
2023-03-24T02:50:16.843Z,0.00
2023-03-24T02:51:16.818Z,0.00
2023-03-24T02:52:16.893Z,0.00
2023-03-24T02:53:16.849Z,0.00
2023-03-24T02:54:16.800Z,0.00
2023-03-24T02:55:16.798Z,0.00
2023-03-24T02:56:16.764Z,0.00
2023-03-24T02:57:16.750Z,0.00
2023-03-24T02:58:16.737Z,0.00
2023-03-24T02:59:16.753Z,0.00
2023-03-24T03:00:16.736Z,0.00
2023-03-24T03:01:16.770Z,0.00
2023-03-24T03:02:16.693Z,0.00
2023-03-24T03:03:16.693Z,0.00
2023-03-24T03:04:16.719Z,0.00
2023-03-24T03:05:16.693Z,0.00
2023-03-24T03:06:16.665Z,0.00
2023-03-24T03:07:16.641Z,0.00
2023-03-24T03:08:16.618Z,0.00
2023-03-24T03:09:16.636Z,0.00
2023-03-24T03:10:16.621Z,0.00
2023-03-24T03:11:16.586Z,0.00
2023-03-24T03:12:16.597Z,0.00
2023-03-24T03:13:16.587Z,0.00
2023-03-24T03:14:16.558Z,0.00
2023-03-24T03:15:16.556Z,0.00
2023-03-24T03:16:16.588Z,0.00
2023-03-24T03:17:16.533Z,0.00
2023-03-24T03:18:16.520Z,0.00
2023-03-24T03:19:16.513Z,0.00
2023-03-24T03:20:16.486Z,0.00
2023-03-24T03:21:16.475Z,0.00
2023-03-24T03:22:16.461Z,0.00
2023-03-24T03:23:16.463Z,0.00
2023-03-24T03:24:16.439Z,0.00
2023-03-24T03:25:16.438Z,0.00
2023-03-24T03:26:16.512Z,0.00
2023-03-24T03:27:16.406Z,0.00
2023-03-24T03:28:16.404Z,0.00
2023-03-24T03:29:16.400Z,0.00
2023-03-24T03:30:16.415Z,0.00
2023-03-24T03:31:16.411Z,0.00
2023-03-24T03:32:16.354Z,0.00
2023-03-24T03:33:16.413Z,0.00
2023-03-24T03:34:16.341Z,0.00
2023-03-24T03:35:16.341Z,0.00
2023-03-24T03:36:16.392Z,0.00
2023-03-24T03:37:16.353Z,0.00
2023-03-24T03:38:16.297Z,0.00
2023-03-24T03:39:16.345Z,0.00
2023-03-24T03:40:16.264Z,0.00
2023-03-24T03:41:16.272Z,0.00
2023-03-24T03:42:16.252Z,0.00
2023-03-24T03:43:16.246Z,0.00
2023-03-24T03:44:16.206Z,0.00
2023-03-24T03:45:16.262Z,0.00
2023-03-24T03:46:16.285Z,0.00
2023-03-24T03:47:16.186Z,0.00
2023-03-24T03:48:16.262Z,0.00
2023-03-24T03:49:16.177Z,0.00
2023-03-24T03:50:16.154Z,0.00
2023-03-24T03:51:16.192Z,0.00
2023-03-24T03:52:16.143Z,0.00
2023-03-24T03:53:16.132Z,0.00
2023-03-24T03:54:16.129Z,0.00
2023-03-24T03:55:16.122Z,0.00
2023-03-24T03:56:16.093Z,0.00
2023-03-24T03:57:16.083Z,0.00
2023-03-24T03:58:16.050Z,0.00
2023-03-24T03:59:16.056Z,0.00
2023-03-24T04:00:16.029Z,0.00
2023-03-24T04:01:16.086Z,0.00
2023-03-24T04:02:16.051Z,0.00
2023-03-24T04:03:16.069Z,0.00
2023-03-24T04:04:16.001Z,0.00
2023-03-24T04:05:15.998Z,0.00
2023-03-24T04:06:15.988Z,0.00
2023-03-24T04:07:15.966Z,0.00
2023-03-24T04:08:15.948Z,0.00
2023-03-24T04:09:15.958Z,0.00
2023-03-24T04:10:15.917Z,0.00
2023-03-24T04:11:15.922Z,0.00
2023-03-24T04:12:15.928Z,0.00
2023-03-24T04:13:15.889Z,0.00
2023-03-24T04:14:15.872Z,0.00
2023-03-24T04:15:15.899Z,0.00
2023-03-24T04:16:15.940Z,0.00
2023-03-24T04:17:15.865Z,0.00
2023-03-24T04:18:15.825Z,0.00
2023-03-24T04:19:15.825Z,0.00
2023-03-24T04:20:15.814Z,0.00
2023-03-24T04:21:15.810Z,0.00
2023-03-24T04:22:15.815Z,0.00
2023-03-24T04:23:15.781Z,0.00
2023-03-24T04:24:15.783Z,0.00
2023-03-24T04:25:15.748Z,0.00
2023-03-24T04:26:15.744Z,0.00
2023-03-24T04:27:15.737Z,0.00
2023-03-24T04:28:15.723Z,0.00
2023-03-24T04:29:15.719Z,0.00
2023-03-24T04:30:16.898Z,0.00
2023-03-24T04:31:15.716Z,0.00
2023-03-24T04:32:15.667Z,0.00
2023-03-24T04:33:15.657Z,0.00
2023-03-24T04:34:15.663Z,0.00
2023-03-24T04:35:15.646Z,0.00
2023-03-24T04:36:15.658Z,0.00
2023-03-24T04:37:15.617Z,0.00
2023-03-24T04:38:15.610Z,0.00
2023-03-24T04:39:15.611Z,0.00
2023-03-24T04:40:15.576Z,0.00
2023-03-24T04:41:15.773Z,0.00
2023-03-24T04:42:15.567Z,0.00
2023-03-24T04:43:15.581Z,0.00
2023-03-24T04:44:15.550Z,0.00
2023-03-24T04:45:15.562Z,0.00
2023-03-24T04:46:15.548Z,0.00
2023-03-24T04:47:15.504Z,0.00
2023-03-24T04:48:15.535Z,0.00
2023-03-24T04:49:15.504Z,0.00
2023-03-24T04:50:15.475Z,0.00
2023-03-24T04:51:15.451Z,0.00
2023-03-24T04:52:17.509Z,0.00
2023-03-24T04:53:15.437Z,0.00
2023-03-24T04:54:15.409Z,0.00
2023-03-24T04:55:15.448Z,0.00
2023-03-24T04:56:15.405Z,0.00
2023-03-24T04:57:15.400Z,0.00
2023-03-24T04:58:15.375Z,0.00
2023-03-24T04:59:15.382Z,0.00
2023-03-24T05:00:15.355Z,0.00
2023-03-24T05:01:15.447Z,0.00
2023-03-24T05:02:15.344Z,0.00
2023-03-24T05:03:15.348Z,0.00
2023-03-24T05:04:15.384Z,0.00
2023-03-24T05:05:15.327Z,0.00
2023-03-24T05:06:15.307Z,4.00
2023-03-24T05:07:15.268Z,4.00
2023-03-24T05:08:15.266Z,4.00
2023-03-24T05:09:15.250Z,8.00
2023-03-24T05:10:15.261Z,4.00
2023-03-24T05:11:15.233Z,8.00
2023-03-24T05:12:15.252Z,8.00
2023-03-24T05:13:15.232Z,8.00
2023-03-24T05:14:15.221Z,12.00
2023-03-24T05:15:15.178Z,16.00
2023-03-24T05:16:15.221Z,16.00
2023-03-24T05:17:15.181Z,16.00
2023-03-24T05:18:15.144Z,12.00
2023-03-24T05:19:15.181Z,12.00
2023-03-24T05:20:15.207Z,16.00
2023-03-24T05:21:15.106Z,16.00
2023-03-24T05:22:15.097Z,12.00
2023-03-24T05:23:15.133Z,16.00
2023-03-24T05:24:15.085Z,16.00
2023-03-24T05:25:15.126Z,20.00
2023-03-24T05:26:15.098Z,32.00
2023-03-24T05:27:15.046Z,36.00
2023-03-24T05:28:15.032Z,44.00
2023-03-24T05:29:15.042Z,52.00
2023-03-24T05:30:15.037Z,60.00
2023-03-24T05:31:15.045Z,64.00
2023-03-24T05:32:15.001Z,60.00
2023-03-24T05:33:15.015Z,60.00
2023-03-24T05:34:15.000Z,64.00
2023-03-24T05:35:14.969Z,60.00
2023-03-24T05:36:15.012Z,80.00
2023-03-24T05:37:14.938Z,88.00
2023-03-24T05:38:14.937Z,92.00
2023-03-24T05:39:14.919Z,120.00
2023-03-24T05:40:14.894Z,152.00
2023-03-24T05:41:14.903Z,164.00
2023-03-24T05:42:14.880Z,164.00
2023-03-24T05:43:14.881Z,192.00
2023-03-24T05:44:14.860Z,236.00
2023-03-24T05:45:14.860Z,220.00
2023-03-24T05:46:14.864Z,204.00
2023-03-24T05:47:14.830Z,212.00
2023-03-24T05:48:14.811Z,244.00
2023-03-24T05:49:14.788Z,232.00
2023-03-24T05:50:14.817Z,212.00
2023-03-24T05:51:14.777Z,248.00
2023-03-24T05:52:14.766Z,288.00
2023-03-24T05:53:14.767Z,296.00
2023-03-24T05:54:14.738Z,320.00
2023-03-24T05:55:14.726Z,324.00
2023-03-24T05:56:14.725Z,308.00
2023-03-24T05:57:14.727Z,352.00
2023-03-24T05:58:14.687Z,412.00
2023-03-24T05:59:14.674Z,464.00
2023-03-24T06:00:14.669Z,484.00
2023-03-24T06:01:14.658Z,504.00
2023-03-24T06:02:14.721Z,616.00
2023-03-24T06:03:14.745Z,680.00
2023-03-24T06:04:14.682Z,512.00
2023-03-24T06:05:14.635Z,708.00
2023-03-24T06:06:14.772Z,820.00
2023-03-24T06:07:14.602Z,712.00
2023-03-24T06:08:14.589Z,692.00
2023-03-24T06:09:14.566Z,596.00
2023-03-24T06:10:14.636Z,592.00
2023-03-24T06:11:14.550Z,448.00
2023-03-24T06:12:14.548Z,512.00
2023-03-24T06:13:14.537Z,568.00
2023-03-24T06:14:14.517Z,648.00
2023-03-24T06:15:14.506Z,552.00
2023-03-24T06:16:14.515Z,620.00
2023-03-24T06:17:14.495Z,704.00
2023-03-24T06:18:14.487Z,636.00
2023-03-24T06:19:14.449Z,712.00
2023-03-24T06:20:14.467Z,792.00
2023-03-24T06:21:14.444Z,1028.00
2023-03-24T06:22:14.432Z,764.00
2023-03-24T06:23:14.406Z,816.00
2023-03-24T06:24:14.411Z,760.00
2023-03-24T06:25:14.393Z,900.00
2023-03-24T06:26:14.384Z,736.00
2023-03-24T06:27:14.366Z,628.00
2023-03-24T06:28:14.361Z,564.00
2023-03-24T06:29:14.359Z,452.00
2023-03-24T06:30:14.346Z,512.00
2023-03-24T06:31:14.364Z,520.00
2023-03-24T06:32:14.333Z,412.00
2023-03-24T06:33:14.377Z,544.00
2023-03-24T06:34:14.293Z,512.00
2023-03-24T06:35:14.271Z,492.00
2023-03-24T06:36:14.287Z,664.00
2023-03-24T06:37:14.272Z,632.00
2023-03-24T06:38:14.274Z,580.00
2023-03-24T06:39:14.240Z,740.00
2023-03-24T06:40:14.233Z,804.00
2023-03-24T06:41:14.226Z,720.00
2023-03-24T06:42:14.211Z,564.00
2023-03-24T06:43:14.209Z,636.00
2023-03-24T06:44:14.184Z,712.00
2023-03-24T06:45:14.171Z,452.00
2023-03-24T06:46:14.222Z,356.00
2023-03-24T06:47:14.151Z,492.00
2023-03-24T06:48:14.165Z,508.00
2023-03-24T06:49:14.116Z,588.00
2023-03-24T06:50:14.111Z,712.00
2023-03-24T06:51:14.099Z,648.00
2023-03-24T06:52:14.085Z,656.00
2023-03-24T06:53:14.079Z,496.00
2023-03-24T06:54:14.056Z,672.00
2023-03-24T06:55:14.049Z,604.00
2023-03-24T06:56:14.040Z,676.00
2023-03-24T06:57:14.074Z,756.00
2023-03-24T06:58:14.039Z,780.00
2023-03-24T06:59:14.007Z,984.00
2023-03-24T07:00:13.992Z,1008.00
2023-03-24T07:01:13.968Z,980.00
2023-03-24T07:02:13.976Z,904.00
2023-03-24T07:03:14.060Z,1204.00
2023-03-24T07:04:13.953Z,1136.00
2023-03-24T07:05:13.940Z,1200.00
2023-03-24T07:06:13.940Z,936.00
2023-03-24T07:07:44.841Z,1324.00
2023-03-24T07:09:13.887Z,904.00
2023-03-24T07:10:13.907Z,1460.00
2023-03-24T07:11:14.084Z,824.00
2023-03-24T07:12:14.837Z,1224.00
2023-03-24T07:13:13.850Z,1532.00
2023-03-24T07:14:13.858Z,1228.00
2023-03-24T07:15:13.829Z,1232.00
2023-03-24T07:16:13.895Z,1240.00
2023-03-24T07:17:13.786Z,952.00
2023-03-24T07:18:13.866Z,932.00
2023-03-24T07:19:13.783Z,1168.00
2023-03-24T07:20:13.760Z,936.00
2023-03-24T07:21:13.754Z,1352.00
2023-03-24T07:22:13.785Z,1360.00
2023-03-24T07:23:13.807Z,1176.00
2023-03-24T07:24:13.753Z,856.00
2023-03-24T07:25:13.728Z,1052.00
2023-03-24T07:26:13.731Z,1256.00
2023-03-24T07:27:13.677Z,1048.00
2023-03-24T07:28:13.690Z,1088.00
2023-03-24T07:29:13.680Z,896.00
2023-03-24T07:30:13.663Z,1200.00
2023-03-24T07:31:13.676Z,1180.00
2023-03-24T07:32:13.645Z,1792.00
2023-03-24T07:33:13.608Z,1932.00
2023-03-24T07:34:13.628Z,1876.00
2023-03-24T07:35:13.606Z,1916.00
2023-03-24T07:36:13.643Z,1968.00
2023-03-24T07:37:13.618Z,2288.00
2023-03-24T07:38:13.559Z,1956.00
2023-03-24T07:39:13.547Z,1792.00
2023-03-24T07:40:13.836Z,1348.00
2023-03-24T07:41:13.522Z,1504.00
2023-03-24T07:42:13.527Z,1512.00
2023-03-24T07:43:13.521Z,1984.00
2023-03-24T07:44:13.504Z,1516.00
2023-03-24T07:45:13.487Z,1516.00
2023-03-24T07:46:13.533Z,1356.00
2023-03-24T07:47:13.470Z,1460.00
2023-03-24T07:48:13.478Z,1832.00
2023-03-24T07:49:19.277Z,1672.00
2023-03-24T07:50:13.433Z,1448.00
2023-03-24T07:51:13.408Z,1520.00
2023-03-24T07:52:13.401Z,1296.00
2023-03-24T07:53:13.410Z,1420.00
2023-03-24T07:54:13.413Z,1076.00
2023-03-24T07:55:13.376Z,1372.00
2023-03-24T07:56:13.361Z,1308.00
2023-03-24T07:57:13.403Z,1564.00
2023-03-24T07:58:13.359Z,1640.00
2023-03-24T07:59:13.356Z,1908.00
2023-03-24T08:00:13.334Z,1368.00
2023-03-24T08:01:13.291Z,1504.00
2023-03-24T08:02:13.355Z,1736.00
2023-03-24T08:03:13.364Z,1804.00
2023-03-24T08:04:13.429Z,1420.00
2023-03-24T08:05:13.246Z,1568.00
2023-03-24T08:06:13.272Z,1584.00
2023-03-24T08:07:13.248Z,1888.00
2023-03-24T08:08:13.230Z,2220.00
2023-03-24T08:09:13.218Z,2268.00
2023-03-24T08:10:13.197Z,2076.00
2023-03-24T08:11:13.211Z,2668.00
2023-03-24T08:12:19.988Z,2788.00
2023-03-24T08:13:13.182Z,3368.00
2023-03-24T08:14:13.175Z,3088.00
2023-03-24T08:15:13.155Z,2996.00
2023-03-24T08:16:13.174Z,3008.00
2023-03-24T08:17:13.130Z,3796.00
2023-03-24T08:18:13.121Z,2540.00
2023-03-24T08:19:13.103Z,2832.00
2023-03-24T08:20:13.106Z,2824.00
2023-03-24T08:21:13.073Z,2156.00
2023-03-24T08:22:13.085Z,3636.00
2023-03-24T08:23:13.042Z,4180.00
2023-03-24T08:24:13.040Z,4320.00
2023-03-24T08:25:13.046Z,3768.00
2023-03-24T08:26:13.032Z,4020.00
2023-03-24T08:27:13.054Z,3368.00
2023-03-24T08:28:12.990Z,4540.00
2023-03-24T08:29:13.002Z,4692.00
2023-03-24T08:30:12.989Z,4428.00
2023-03-24T08:31:12.991Z,4464.00
2023-03-24T08:32:12.949Z,4984.00
2023-03-24T08:33:13.021Z,3872.00
2023-03-24T08:34:12.926Z,5440.00
2023-03-24T08:35:12.925Z,5804.00
2023-03-24T08:36:12.929Z,4844.00
2023-03-24T08:37:12.882Z,6048.00
2023-03-24T08:38:12.903Z,4280.00
2023-03-24T08:39:12.884Z,4596.00
2023-03-24T08:40:12.880Z,4004.00
2023-03-24T08:41:12.854Z,3920.00
2023-03-24T08:42:12.854Z,4312.00
2023-03-24T08:43:12.830Z,3564.00
2023-03-24T08:44:12.823Z,3268.00
2023-03-24T08:45:12.813Z,3844.00
2023-03-24T08:46:14.022Z,5484.00
2023-03-24T08:47:12.780Z,5628.00
2023-03-24T08:48:12.820Z,6364.00
2023-03-24T08:49:12.748Z,5216.00
2023-03-24T08:50:12.773Z,3860.00
2023-03-24T08:51:12.742Z,4368.00
2023-03-24T08:52:12.721Z,5636.00
2023-03-24T08:53:12.782Z,7736.00
2023-03-24T08:54:12.729Z,6508.00
2023-03-24T08:55:12.694Z,5936.00
2023-03-24T08:56:12.691Z,5776.00
2023-03-24T08:57:12.671Z,8620.00
2023-03-24T08:58:12.665Z,8216.00
2023-03-24T08:59:12.660Z,9108.00
2023-03-24T09:00:12.630Z,6596.00
2023-03-24T09:01:12.640Z,8688.00
2023-03-24T09:02:12.618Z,9788.00
2023-03-24T09:03:12.656Z,10684.00
2023-03-24T09:04:12.648Z,10280.00
2023-03-24T09:05:12.576Z,10948.00
2023-03-24T09:06:12.554Z,11284.00
2023-03-24T09:07:12.556Z,9768.00
2023-03-24T09:08:12.550Z,8492.00
2023-03-24T09:09:12.548Z,7660.00
2023-03-24T09:10:12.551Z,7840.00
2023-03-24T09:11:12.504Z,7968.00
2023-03-24T09:12:12.510Z,7340.00
2023-03-24T09:13:12.488Z,7412.00
2023-03-24T09:14:12.593Z,8744.00
2023-03-24T09:15:13.469Z,9968.00
2023-03-24T09:16:12.468Z,11068.00
2023-03-24T09:17:12.448Z,11716.00
2023-03-24T09:18:12.426Z,9568.00
2023-03-24T09:19:12.423Z,8156.00
2023-03-24T09:20:12.409Z,7640.00
2023-03-24T09:21:12.409Z,7716.00
2023-03-24T09:22:12.375Z,9544.00
2023-03-24T09:23:12.376Z,7712.00
2023-03-24T09:24:12.351Z,9308.00
2023-03-24T09:25:12.356Z,9904.00
2023-03-24T09:26:12.324Z,9296.00
2023-03-24T09:27:12.347Z,7396.00
2023-03-24T09:28:12.321Z,6580.00
2023-03-24T09:29:12.295Z,5132.00
2023-03-24T09:30:12.294Z,4960.00
2023-03-24T09:31:12.376Z,5956.00
2023-03-24T09:32:12.273Z,3876.00
2023-03-24T09:33:12.289Z,5760.00
2023-03-24T09:34:12.246Z,5252.00
2023-03-24T09:35:12.243Z,5196.00
2023-03-24T09:36:12.232Z,5736.00
2023-03-24T09:37:12.208Z,6404.00
2023-03-24T09:38:12.378Z,5688.00
2023-03-24T09:39:12.177Z,6008.00
2023-03-24T09:40:12.191Z,5244.00
2023-03-24T09:41:12.159Z,6416.00
2023-03-24T09:42:12.138Z,6732.00
2023-03-24T09:43:12.160Z,6552.00
2023-03-24T09:44:12.117Z,4620.00
2023-03-24T09:45:12.123Z,6744.00
2023-03-24T09:46:12.122Z,6868.00
2023-03-24T09:47:12.098Z,6840.00
2023-03-24T09:48:12.146Z,7184.00
2023-03-24T09:49:12.068Z,6900.00
2023-03-24T09:50:12.066Z,7960.00
2023-03-24T09:51:12.049Z,6236.00
2023-03-24T09:52:12.030Z,8180.00
2023-03-24T09:53:12.129Z,7000.00
2023-03-24T09:54:12.017Z,7200.00
2023-03-24T09:55:12.014Z,7552.00
2023-03-24T09:56:11.995Z,9332.00
2023-03-24T09:57:12.028Z,10492.00
2023-03-24T09:58:11.984Z,10636.00
2023-03-24T09:59:11.975Z,8848.00
2023-03-24T10:00:11.952Z,7120.00
2023-03-24T10:01:11.954Z,6500.00
2023-03-24T10:02:11.923Z,7784.00
2023-03-24T10:03:12.039Z,6936.00
2023-03-24T10:04:12.037Z,5600.00
2023-03-24T10:05:11.891Z,7396.00
2023-03-24T10:06:11.923Z,7056.00
2023-03-24T10:07:11.875Z,6660.00
2023-03-24T10:08:11.921Z,6872.00
2023-03-24T10:09:11.881Z,8888.00
2023-03-24T10:10:11.851Z,12700.00
2023-03-24T10:11:11.832Z,11444.00
2023-03-24T10:12:11.824Z,8576.00
2023-03-24T10:13:11.822Z,6464.00
2023-03-24T10:14:11.801Z,7644.00
2023-03-24T10:15:11.797Z,6756.00
2023-03-24T10:16:11.800Z,6968.00
2023-03-24T10:17:11.767Z,6552.00
2023-03-24T10:18:11.770Z,5604.00
2023-03-24T10:19:11.761Z,5920.00
2023-03-24T10:20:11.734Z,5580.00
2023-03-24T10:21:11.707Z,5368.00
2023-03-24T10:22:11.692Z,6016.00
2023-03-24T10:23:11.707Z,5420.00
2023-03-24T10:24:11.697Z,4820.00
2023-03-24T10:25:11.677Z,4852.00
2023-03-24T10:26:11.666Z,5836.00
2023-03-24T10:27:11.650Z,6316.00
2023-03-24T10:28:11.641Z,5928.00
2023-03-24T10:29:11.625Z,5644.00
2023-03-24T10:30:11.613Z,4872.00
2023-03-24T10:31:11.636Z,5444.00
2023-03-24T10:32:11.596Z,7872.00
2023-03-24T10:33:11.636Z,6764.00
2023-03-24T10:34:11.581Z,7816.00
2023-03-24T10:35:11.568Z,7456.00
2023-03-24T10:36:11.577Z,7028.00
2023-03-24T10:37:11.562Z,5768.00
2023-03-24T10:38:11.529Z,6920.00
2023-03-24T10:39:19.070Z,9012.00
2023-03-24T10:40:11.508Z,9444.00
2023-03-24T10:41:11.539Z,9008.00
2023-03-24T10:42:11.487Z,8704.00
2023-03-24T10:43:11.466Z,9312.00
2023-03-24T10:44:11.471Z,10004.00
2023-03-24T10:45:11.461Z,10964.00
2023-03-24T10:46:11.469Z,11036.00
2023-03-24T10:47:11.423Z,12376.00
2023-03-24T10:48:11.493Z,10164.00
2023-03-24T10:49:11.393Z,10732.00
2023-03-24T10:50:12.559Z,10240.00
2023-03-24T10:51:11.430Z,11096.00
2023-03-24T10:52:11.386Z,13792.00
2023-03-24T10:53:11.356Z,13824.00
2023-03-24T10:54:11.393Z,13956.00
2023-03-24T10:55:11.470Z,12836.00
2023-03-24T10:56:11.324Z,10632.00
2023-03-24T10:57:11.338Z,11404.00
2023-03-24T10:58:11.322Z,13588.00
2023-03-24T10:59:11.293Z,10128.00
2023-03-24T11:00:11.291Z,11912.00
2023-03-24T11:01:11.464Z,11108.00
2023-03-24T11:02:11.284Z,11004.00
2023-03-24T11:03:11.357Z,7612.00
2023-03-24T11:04:11.238Z,6560.00
2023-03-24T11:05:11.269Z,6484.00
2023-03-24T11:06:11.205Z,5812.00
2023-03-24T11:07:11.203Z,5796.00
2023-03-24T11:08:11.189Z,3548.00
2023-03-24T11:09:11.357Z,3264.00
2023-03-24T11:10:11.178Z,2724.00
2023-03-24T11:11:11.168Z,2236.00
2023-03-24T11:12:11.141Z,2844.00
2023-03-24T11:13:11.138Z,5380.00
2023-03-24T11:14:11.128Z,6524.00
2023-03-24T11:15:20.128Z,6068.00
2023-03-24T11:16:11.096Z,5088.00
2023-03-24T11:17:11.135Z,4744.00
2023-03-24T11:18:11.086Z,4968.00
2023-03-24T11:19:11.060Z,5576.00
2023-03-24T11:20:11.061Z,6476.00
2023-03-24T11:21:11.046Z,6924.00
2023-03-24T11:22:11.011Z,6912.00
2023-03-24T11:23:11.100Z,6760.00
2023-03-24T11:24:11.058Z,6956.00
2023-03-24T11:25:11.049Z,7220.00
2023-03-24T11:26:10.964Z,7628.00
2023-03-24T11:27:10.972Z,7632.00
2023-03-24T11:28:10.992Z,9148.00
2023-03-24T11:29:10.950Z,9456.00
2023-03-24T11:30:10.946Z,10632.00
2023-03-24T11:31:10.952Z,9396.00
2023-03-24T11:32:10.934Z,9652.00
2023-03-24T11:33:10.924Z,9252.00
2023-03-24T11:34:10.914Z,9376.00
2023-03-24T11:35:10.940Z,8292.00
2023-03-24T11:36:11.170Z,7228.00
2023-03-24T11:37:10.862Z,7820.00
2023-03-24T11:38:10.905Z,9368.00
2023-03-24T11:39:10.845Z,10176.00
2023-03-24T11:40:10.929Z,9444.00
2023-03-24T11:41:10.849Z,7652.00
2023-03-24T11:42:10.801Z,7772.00
2023-03-24T11:43:10.801Z,8072.00
2023-03-24T11:44:10.801Z,10204.00
2023-03-24T11:45:10.804Z,11264.00
2023-03-24T11:46:10.749Z,13024.00
2023-03-24T11:47:10.749Z,13008.00
2023-03-24T11:48:10.805Z,13956.00
2023-03-24T11:49:10.718Z,16120.00
2023-03-24T11:50:10.721Z,15428.00
2023-03-24T11:51:10.704Z,12440.00
2023-03-24T11:52:10.699Z,13408.00
2023-03-24T11:53:10.693Z,13872.00
2023-03-24T11:54:10.657Z,15112.00
2023-03-24T11:55:10.681Z,15644.00
2023-03-24T11:56:10.643Z,15564.00
2023-03-24T11:57:10.687Z,15784.00
2023-03-24T11:58:10.626Z,14500.00
2023-03-24T11:59:10.614Z,15168.00
2023-03-24T12:00:10.617Z,14904.00
2023-03-24T12:01:10.578Z,15336.00
2023-03-24T12:02:10.570Z,15404.00
2023-03-24T12:03:10.704Z,14616.00
2023-03-24T12:04:10.546Z,13680.00
2023-03-24T12:05:10.624Z,13684.00
2023-03-24T12:06:10.582Z,13612.00
2023-03-24T12:07:10.526Z,12220.00
2023-03-24T12:08:10.532Z,14340.00
2023-03-24T12:09:10.522Z,16296.00
2023-03-24T12:10:10.501Z,15076.00
2023-03-24T12:11:10.479Z,15180.00
2023-03-24T12:12:10.455Z,15872.00
2023-03-24T12:13:21.979Z,15860.00
2023-03-24T12:14:10.487Z,16436.00
2023-03-24T12:15:24.656Z,15912.00
2023-03-24T12:16:10.507Z,15708.00
2023-03-24T12:17:10.407Z,16424.00
2023-03-24T12:18:10.486Z,13384.00
2023-03-24T12:19:10.418Z,13576.00
2023-03-24T12:20:10.394Z,13568.00
2023-03-24T12:21:10.360Z,17248.00
2023-03-24T12:22:10.366Z,18368.00
2023-03-24T12:23:10.360Z,16136.00
2023-03-24T12:24:10.335Z,14880.00
2023-03-24T12:25:10.322Z,10256.00
2023-03-24T12:26:10.327Z,10136.00
2023-03-24T12:27:10.316Z,11952.00
2023-03-24T12:28:10.406Z,9360.00
2023-03-24T12:29:10.274Z,9376.00
2023-03-24T12:30:10.260Z,8496.00
2023-03-24T12:31:10.277Z,8320.00
2023-03-24T12:32:10.229Z,10196.00
2023-03-24T12:33:10.252Z,7600.00
2023-03-24T12:34:10.230Z,6788.00
2023-03-24T12:35:10.273Z,6896.00
2023-03-24T12:36:10.221Z,6860.00
2023-03-24T12:37:10.202Z,5908.00